Time;durP1;ratioP1;P1;durP2;ratioP2;P2;SDS_P1;SDS_P2;PMS_P1;PMS_P2;Temp;Humidity;BMP_temperature;BMP_pressure;BME280_temperature;BME280_humidity;BME280_pressure;Samples;Min_cycle;Max_cycle;Signal;HPM_P1;HPM_P2
2021/05/02 04:10:58;;;;;;;0.90;0.90;;;7.90;99.90;;;;;;5750569;23;20277;-80
2021/05/02 04:13:25;;;;;;;0.87;0.87;;;7.90;99.90;;;;;;5017592;28;20215;-81
2021/05/02 04:15:52;;;;;;;0.90;0.90;;;7.90;99.90;;;;;;5016457;28;20628;-81
2021/05/02 04:18:19;;;;;;;0.80;0.80;;;7.90;99.90;;;;;;5015331;28;20729;-80
2021/05/02 04:20:46;;;;;;;0.80;0.80;;;7.90;99.90;;;;;;5015737;28;20222;-81
2021/05/02 04:23:13;;;;;;;0.80;0.80;;;8.00;99.90;;;;;;4996923;28;20630;-82
2021/05/02 04:25:40;;;;;;;0.80;0.80;;;8.00;99.90;;;;;;5016672;23;20597;-80
2021/05/02 04:28:08;;;;;;;0.80;0.80;;;7.60;99.90;;;;;;5018822;28;20199;-80
2021/05/02 04:30:35;;;;;;;1.00;1.00;;;8.00;99.90;;;;;;5012652;28;20192;-79
2021/05/02 04:33:02;;;;;;;0.90;0.90;;;7.90;99.90;;;;;;5005755;28;20295;-79
2021/05/02 04:35:29;;;;;;;0.80;0.80;;;7.90;99.90;;;;;;4995119;28;20316;-79
2021/05/02 04:37:56;;;;;;;1.17;1.17;;;8.00;99.90;;;;;;4979394;28;20201;-80
2021/05/02 04:40:23;;;;;;;0.97;0.97;;;7.70;99.90;;;;;;4976740;28;20204;-80
2021/05/02 04:42:50;;;;;;;0.80;0.80;;;8.10;99.90;;;;;;4976955;28;20223;-80
2021/05/02 04:45:18;;;;;;;0.90;0.90;;;8.00;99.90;;;;;;4977323;28;20643;-80
2021/05/02 04:47:45;;;;;;;0.90;0.90;;;8.10;99.90;;;;;;4978126;28;20295;-80
2021/05/02 04:50:12;;;;;;;1.10;1.10;;;8.00;99.90;;;;;;4980687;28;20213;-78
2021/05/02 04:52:40;;;;;;;0.90;0.90;;;7.80;99.90;;;;;;4979401;28;20212;-80
2021/05/02 04:55:07;;;;;;;0.80;0.80;;;8.10;99.90;;;;;;4978027;28;20228;-80
2021/05/02 04:57:34;;;;;;;0.83;0.83;;;8.20;99.90;;;;;;4975651;28;20212;-80
2021/05/02 05:00:01;;;;;;;0.70;0.70;;;8.00;99.90;;;;;;4975034;28;20215;-79
2021/05/02 05:02:30;;;;;;;1.00;1.00;;;8.00;99.90;;;;;;4977426;28;20809;-80
2021/05/02 05:04:57;;;;;;;0.83;0.83;;;8.00;99.90;;;;;;4976404;28;20207;-79
2021/05/02 05:07:24;;;;;;;0.90;0.90;;;8.00;99.90;;;;;;4977820;28;20263;-79
2021/05/02 05:09:50;;;;;;;0.80;0.80;;;7.90;99.90;;;;;;4977700;28;20211;-79
2021/05/02 05:12:17;;;;;;;0.70;0.70;;;8.10;99.90;;;;;;4976528;28;20333;-80
2021/05/02 05:14:44;;;;;;;0.87;0.87;;;8.00;99.90;;;;;;4976061;28;20263;-78
2021/05/02 05:17:11;;;;;;;0.70;0.70;;;7.90;99.90;;;;;;4976126;28;20231;-79
2021/05/02 05:19:40;;;;;;;0.80;0.80;;;8.30;99.90;;;;;;4976663;28;20677;-79
2021/05/02 05:22:07;;;;;;;0.80;0.80;;;8.10;99.90;;;;;;4976807;28;20208;-79
2021/05/02 05:24:34;;;;;;;0.87;0.87;;;8.10;99.90;;;;;;4977547;28;20205;-79
2021/05/02 05:27:01;;;;;;;0.60;0.60;;;8.00;99.90;;;;;;4975751;28;20233;-79
2021/05/02 05:29:28;;;;;;;0.80;0.80;;;8.20;99.90;;;;;;4977316;28;20279;-80
2021/05/02 05:31:55;;;;;;;0.90;0.90;;;7.90;99.90;;;;;;4979401;28;20259;-79
2021/05/02 05:34:22;;;;;;;0.90;0.90;;;;;;;;;;4978801;28;20232;-79
2021/05/02 05:36:50;;;;;;;1.00;1.00;;;8.30;99.90;;;;;;4980302;28;20718;-79
2021/05/02 05:39:17;;;;;;;0.80;0.80;;;8.30;99.90;;;;;;4982631;28;20200;-79
2021/05/02 05:41:44;;;;;;;0.80;0.80;;;8.10;99.90;;;;;;4980517;28;20240;-79
2021/05/02 05:44:11;;;;;;;0.80;0.80;;;8.00;99.90;;;;;;4979858;28;20208;-79
2021/05/02 05:46:38;;;;;;;0.90;0.90;;;8.10;99.90;;;;;;4978846;28;20220;-79
2021/05/02 05:49:05;;;;;;;0.80;0.80;;;8.10;99.90;;;;;;4979958;28;20211;-79
2021/05/02 05:51:32;;;;;;;0.80;0.80;;;8.20;99.90;;;;;;4979418;28;20215;-80
2021/05/02 05:54:00;;;;;;;0.90;0.90;;;8.00;99.90;;;;;;4977186;28;20212;-80
2021/05/02 05:56:26;;;;;;;0.80;0.80;;;8.10;99.90;;;;;;4977997;28;20287;-80
2021/05/02 05:58:53;;;;;;;0.90;0.90;;;8.20;99.90;;;;;;4976929;28;20686;-78
2021/05/02 06:01:20;;;;;;;0.90;0.90;;;9.40;99.90;;;;;;4976612;28;20295;-79
2021/05/02 06:03:47;;;;;;;1.00;1.00;;;8.50;99.90;;;;;;4974404;28;20228;-79
2021/05/02 06:06:14;;;;;;;1.00;1.00;;;8.20;99.90;;;;;;4983252;28;20220;-80
2021/05/02 06:08:41;;;;;;;0.80;0.80;;;8.20;99.90;;;;;;4996419;28;20200;-79
2021/05/02 06:11:09;;;;;;;0.87;0.87;;;8.20;99.90;;;;;;4995547;28;20204;-79
2021/05/02 06:13:36;;;;;;;0.80;0.80;;;7.90;99.90;;;;;;4997710;28;20262;-80
2021/05/02 06:16:02;;;;;;;0.90;0.90;;;8.00;99.90;;;;;;4997243;28;20227;-79
2021/05/02 06:18:30;;;;;;;0.83;0.83;;;;;;;;;;4998858;28;20216;-80
2021/05/02 06:20:57;;;;;;;0.80;0.80;;;8.20;99.90;;;;;;4998932;28;20204;-81
2021/05/02 06:23:24;;;;;;;0.93;0.93;;;8.30;99.90;;;;;;4997885;28;20212;-82
2021/05/02 06:25:51;;;;;;;0.90;0.90;;;8.20;99.90;;;;;;4995948;28;20227;-81
2021/05/02 06:28:19;;;;;;;0.90;0.90;;;8.30;99.90;;;;;;4979714;28;20208;-78
2021/05/02 06:30:46;;;;;;;0.80;0.80;;;8.10;99.90;;;;;;4976400;28;20204;-81
2021/05/02 06:33:12;;;;;;;0.87;0.87;;;8.00;99.90;;;;;;4977760;28;20212;-84
2021/05/02 06:35:40;;;;;;;1.10;1.10;;;8.10;99.90;;;;;;4977181;28;20267;-84
2021/05/02 06:38:07;;;;;;;0.83;0.83;;;8.00;99.90;;;;;;4978403;28;20208;-83
2021/05/02 06:40:34;;;;;;;0.90;0.90;;;8.00;99.90;;;;;;4985762;28;20205;-82
2021/05/02 06:43:01;;;;;;;0.77;0.77;;;8.00;99.90;;;;;;4990828;28;20204;-82
2021/05/02 06:45:29;;;;;;;0.80;0.80;;;8.00;99.90;;;;;;4979355;28;20241;-81
2021/05/02 06:47:56;;;;;;;1.00;1.00;;;8.20;99.90;;;;;;4981219;28;20200;-80
2021/05/02 06:50:23;;;;;;;1.03;1.03;;;8.20;99.90;;;;;;4981280;28;20209;-80
2021/05/02 06:52:50;;;;;;;0.90;0.90;;;8.20;99.90;;;;;;4981692;28;20234;-82
2021/05/02 06:55:17;;;;;;;0.80;0.80;;;8.30;99.90;;;;;;4998036;28;20227;-83
2021/05/02 06:57:44;;;;;;;0.80;0.80;;;8.40;99.90;;;;;;4996599;28;20207;-81
2021/05/02 07:00:12;;;;;;;0.80;0.80;;;8.10;99.90;;;;;;4998985;28;20583;-83
2021/05/02 07:02:39;;;;;;;0.70;0.70;;;8.20;99.90;;;;;;5006051;28;20208;-79
2021/05/02 07:05:08;;;;;;;1.00;1.00;;;8.20;99.90;;;;;;5002858;28;20645;-81
2021/05/02 07:07:35;;;;;;;0.90;0.90;;;8.20;99.90;;;;;;5009007;28;20196;-79
2021/05/02 07:10:02;;;;;;;0.83;0.83;;;8.20;99.90;;;;;;5001909;28;20323;-79
2021/05/02 07:12:29;;;;;;;0.80;0.80;;;8.10;99.90;;;;;;4999315;28;20197;-78
2021/05/02 07:14:56;;;;;;;1.00;1.00;;;8.30;99.90;;;;;;4999270;28;20196;-78
2021/05/02 07:17:23;;;;;;;0.90;0.90;;;8.20;99.90;;;;;;4995654;28;20224;-80
2021/05/02 07:19:51;;;;;;;0.70;0.70;;;8.40;99.90;;;;;;4990350;28;20194;-77
2021/05/02 07:22:19;;;;;;;0.70;0.70;;;8.40;99.90;;;;;;5007945;28;20670;-78
2021/05/02 07:24:49;;;;;;;0.90;0.90;;;8.10;99.90;;;;;;5011484;28;20200;-78
2021/05/02 07:27:16;;;;;;;0.90;0.90;;;8.40;99.90;;;;;;5011151;28;20231;-80
2021/05/02 07:29:43;;;;;;;0.97;0.97;;;8.10;99.90;;;;;;5015892;28;20195;-82
2021/05/02 07:32:10;;;;;;;0.93;0.93;;;8.30;99.90;;;;;;5017115;28;20250;-81
2021/05/02 07:34:39;;;;;;;0.80;0.80;;;8.20;99.90;;;;;;5013542;28;20196;-78
2021/05/02 07:37:07;;;;;;;0.73;0.73;;;8.20;99.90;;;;;;5016455;28;20295;-82
2021/05/02 07:39:35;;;;;;;0.80;0.80;;;8.40;99.90;;;;;;5005173;28;20214;-78
2021/05/02 07:42:02;;;;;;;0.80;0.80;;;8.30;99.90;;;;;;5004838;28;20203;-78
2021/05/02 07:44:29;;;;;;;0.90;0.90;;;8.30;99.90;;;;;;5005445;28;20192;-80
2021/05/02 07:46:56;;;;;;;1.07;1.07;;;8.10;99.90;;;;;;5002632;28;20634;-85
2021/05/02 07:49:23;;;;;;;1.00;1.00;;;8.50;99.90;;;;;;4992220;28;20200;-81
2021/05/02 07:51:50;;;;;;;0.70;0.70;;;8.20;99.90;;;;;;4994695;28;20231;-80
2021/05/02 07:54:18;;;;;;;0.87;0.87;;;8.10;99.90;;;;;;5002517;28;20645;-82
2021/05/02 07:56:45;;;;;;;0.90;0.90;;;8.00;99.90;;;;;;4994694;28;20224;-82
2021/05/02 07:59:12;;;;;;;0.80;0.80;;;8.00;99.90;;;;;;4990037;28;20232;-80
2021/05/02 08:01:38;;;;;;;1.00;1.00;;;8.10;99.90;;;;;;4991412;28;20252;-80
2021/05/02 08:04:06;;;;;;;0.80;0.80;;;8.00;99.90;;;;;;5008993;28;20211;-80
2021/05/02 08:06:33;;;;;;;0.90;0.90;;;8.30;99.90;;;;;;5015007;28;20220;-79
2021/05/02 08:08:59;;;;;;;0.80;0.80;;;8.30;99.90;;;;;;5011263;28;20204;-80
2021/05/02 08:11:27;;;;;;;1.10;1.10;;;8.20;99.90;;;;;;5005198;28;20208;-80
2021/05/02 08:13:54;;;;;;;1.00;1.00;;;8.50;99.90;;;;;;5005659;28;20246;-81
2021/05/02 08:16:22;;;;;;;0.90;0.90;;;8.40;99.90;;;;;;5005591;28;20224;-79
2021/05/02 08:18:49;;;;;;;0.90;0.90;;;8.30;99.90;;;;;;5005882;28;20254;-80
2021/05/02 08:21:17;;;;;;;1.00;1.00;;;8.50;99.90;;;;;;5003644;28;20208;-80
2021/05/02 08:23:44;;;;;;;1.00;1.00;;;8.50;99.90;;;;;;5003046;28;20258;-80
2021/05/02 08:26:11;;;;;;;0.70;0.70;;;8.40;99.90;;;;;;4989517;28;20282;-81
2021/05/02 08:28:39;;;;;;;0.80;0.80;;;8.50;99.90;;;;;;4992879;28;20622;-80
2021/05/02 08:31:10;;;;;;;0.90;0.90;;;8.60;99.90;;;;;;4981479;28;20204;-81
2021/05/02 08:33:37;;;;;;;0.90;0.90;;;8.50;99.90;;;;;;4981576;28;20207;-82
2021/05/02 08:36:04;;;;;;;0.97;0.97;;;8.50;99.90;;;;;;4988516;28;20219;-81
2021/05/02 08:38:32;;;;;;;0.93;0.93;;;8.60;99.90;;;;;;4987361;28;20228;-83
2021/05/02 08:41:00;;;;;;;0.80;0.80;;;8.60;99.90;;;;;;4996192;28;20207;-84
2021/05/02 08:43:28;;;;;;;0.80;0.80;;;8.60;99.90;;;;;;5003463;28;20200;-80
2021/05/02 08:45:55;;;;;;;0.90;0.90;;;9.30;99.90;;;;;;5002651;28;20220;-80
2021/05/02 08:48:24;;;;;;;1.05;1.05;;;8.80;99.90;;;;;;5008421;28;20201;-79
2021/05/02 08:50:52;;;;;;;0.90;0.90;;;8.90;99.90;;;;;;5015915;28;20275;-80
2021/05/02 08:53:19;;;;;;;0.87;0.87;;;8.90;99.90;;;;;;5014697;28;20211;-82
2021/05/02 08:55:47;;;;;;;0.80;0.80;;;8.90;99.90;;;;;;5010588;28;20212;-82
2021/05/02 08:58:15;;;;;;;1.00;1.00;;;8.90;99.90;;;;;;4998056;28;20212;-80
2021/05/02 09:00:41;;;;;;;0.80;0.80;;;8.90;99.90;;;;;;4989960;28;20201;-82
2021/05/02 09:03:11;;;;;;;0.90;0.90;;;9.10;99.90;;;;;;4986036;28;20279;-84
2021/05/02 09:05:45;;;;;;;0.80;0.80;;;9.10;99.90;;;;;;4981105;28;20227;-81
2021/05/02 09:08:30;;;;;;;0.80;0.80;;;9.20;99.90;;;;;;4980833;28;20208;-81
2021/05/02 09:10:57;;;;;;;0.60;0.60;;;9.40;99.90;;;;;;4980137;28;20244;-82
2021/05/02 09:13:25;;;;;;;0.80;0.80;;;9.50;99.90;;;;;;4980629;28;20626;-83
2021/05/02 09:15:58;;;;;;;0.80;0.80;;;9.50;99.90;;;;;;4979982;28;20255;-82
2021/05/02 09:18:34;;;;;;;0.80;0.80;;;9.40;99.90;;;;;;4979502;28;20215;-82
2021/05/02 09:21:02;;;;;;;0.90;0.90;;;9.60;99.90;;;;;;4980094;28;20223;-79
2021/05/02 09:23:37;;;;;;;0.90;0.90;;;9.50;99.90;;;;;;4981013;28;20212;-82
2021/05/02 09:26:05;;;;;;;0.83;0.83;;;9.40;99.90;;;;;;4988624;28;20224;-81
2021/05/02 09:28:43;;;;;;;0.95;0.95;;;9.60;99.90;;;;;;4993627;28;20619;-82
2021/05/02 09:31:12;;;;;;;0.70;0.70;;;9.60;99.90;;;;;;5000752;28;20657;-81
2021/05/02 09:33:40;;;;;;;0.80;0.80;;;9.70;99.90;;;;;;5001410;28;20199;-80
2021/05/02 09:36:08;;;;;;;0.70;0.70;;;9.90;99.90;;;;;;4999812;28;20636;-80
2021/05/02 09:38:36;;;;;;;0.85;0.85;;;9.90;99.90;;;;;;5000586;28;20792;-79
2021/05/02 09:41:04;;;;;;;1.00;1.00;;;10.00;99.90;;;;;;5000754;28;20188;-80
2021/05/02 09:43:39;;;;;;;0.80;0.80;;;10.10;99.90;;;;;;5000272;28;20203;-81
2021/05/02 09:46:27;;;;;;;0.80;0.80;;;10.30;99.90;;;;;;5001631;28;20223;-80
2021/05/02 09:49:16;;;;;;;0.80;0.80;;;10.30;99.90;;;;;;5001582;28;20242;-79
2021/05/02 09:51:47;;;;;;;0.70;0.70;;;10.30;99.90;;;;;;4999540;28;20208;-80
2021/05/02 09:54:16;;;;;;;0.70;0.70;;;10.40;99.90;;;;;;4998046;28;20692;-80
2021/05/02 09:56:48;;;;;;;0.80;0.80;;;10.60;99.90;;;;;;5000374;28;20282;-78
2021/05/02 09:59:24;;;;;;;0.70;0.70;;;10.60;99.90;;;;;;5000725;28;20608;-78
2021/05/02 10:02:22;;;;;;;0.77;0.77;;;10.90;99.90;;;;;;5000741;28;20212;-80
2021/05/02 10:04:52;;;;;;;0.90;0.90;;;10.90;99.90;;;;;;5000375;28;20215;-78
2021/05/02 10:07:21;;;;;;;0.77;0.77;;;11.00;99.90;;;;;;4998258;28;20204;-78
2021/05/02 10:09:48;;;;;;;0.70;0.70;;;11.10;99.90;;;;;;4995815;28;20212;-78
2021/05/02 10:12:16;;;;;;;0.75;0.75;;;11.00;99.90;;;;;;4996149;28;20735;-80
2021/05/02 10:14:44;;;;;;;0.75;0.75;;;11.10;99.90;;;;;;4998382;28;20211;-79
2021/05/02 10:17:12;;;;;;;0.70;0.70;;;11.10;99.90;;;;;;4979926;28;20283;-78
2021/05/02 10:19:41;;;;;;;0.60;0.60;;;11.10;99.90;;;;;;4998003;28;20247;-79
2021/05/02 10:22:10;;;;;;;0.73;0.73;;;11.20;99.90;;;;;;4984738;28;20200;-80
2021/05/02 10:24:37;;;;;;;0.70;0.70;;;11.10;99.90;;;;;;4982203;28;20196;-82
2021/05/02 10:27:09;;;;;;;0.70;0.70;;;11.10;99.90;;;;;;5018268;23;20287;-82
2021/05/02 10:29:40;;;;;;;0.90;0.90;;;11.00;99.90;;;;;;4975571;28;20197;-80
2021/05/02 10:32:09;;;;;;;0.60;0.60;;;11.20;99.90;;;;;;4983309;28;20612;-81
2021/05/02 10:34:39;;;;;;;0.90;0.90;;;11.40;99.90;;;;;;4982695;28;20185;-80
2021/05/02 10:37:33;;;;;;;0.60;0.60;;;11.50;99.90;;;;;;4977553;28;20220;-79
2021/05/02 10:40:09;;;;;;;0.65;0.65;;;11.50;99.90;;;;;;4974197;28;20606;-79
2021/05/02 10:42:46;;;;;;;0.60;0.60;;;11.50;99.90;;;;;;4978569;28;20196;-79
2021/05/02 10:45:41;;;;;;;0.60;0.60;;;11.60;99.90;;;;;;4978628;28;20216;-79
2021/05/02 10:48:36;;;;;;;0.73;0.73;;;11.70;99.90;;;;;;4966483;28;20220;-80
2021/05/02 10:51:28;;;;;;;0.70;0.70;;;11.60;99.90;;;;;;4972555;28;20211;-81
2021/05/02 10:54:21;;;;;;;0.80;0.80;;;11.30;99.90;;;;;;4973672;28;20204;-81
2021/05/02 10:56:53;;;;;;;0.70;0.70;;;11.40;99.90;;;;;;4965652;28;20220;-80
2021/05/02 10:59:23;;;;;;;0.70;0.70;;;11.60;99.90;;;;;;4979444;28;20192;-80
2021/05/02 11:01:51;;;;;;;0.70;0.70;;;11.60;99.90;;;;;;4971081;28;20194;-80
2021/05/02 11:04:18;;;;;;;0.63;0.63;;;11.50;99.90;;;;;;4970518;28;20197;-80
2021/05/02 11:06:55;;;;;;;0.70;0.70;;;11.60;99.90;;;;;;4978904;28;20232;-79
2021/05/02 11:09:54;;;;;;;0.70;0.70;;;11.60;99.90;;;;;;4969467;28;20266;-80
2021/05/02 11:12:29;;;;;;;0.70;0.70;;;11.60;99.90;;;;;;4963441;28;20213;-80
2021/05/02 11:14:56;;;;;;;0.60;0.60;;;11.60;99.90;;;;;;4972775;28;20197;-80
2021/05/02 11:17:25;;;;;;;0.73;0.73;;;11.50;99.90;;;;;;4974332;28;20232;-81
2021/05/02 11:19:54;;;;;;;0.70;0.70;;;11.20;99.90;;;;;;4973060;28;20212;-81
2021/05/02 11:22:22;;;;;;;0.80;0.80;;;10.90;99.90;;;;;;4975214;28;20201;-81
2021/05/02 11:25:10;;;;;;;0.70;0.70;;;10.80;99.90;;;;;;4983595;28;20215;-82
2021/05/02 11:30:35;;;;;;;0.70;0.70;;;10.80;99.90;;;;;;4974382;28;20209;-82
2021/05/02 11:33:19;;;;;;;0.65;0.65;;;11.00;99.90;;;;;;4966583;28;20253;-83
2021/05/02 11:35:56;;;;;;;0.80;0.80;;;10.90;99.90;;;;;;4969742;28;20205;-81
2021/05/02 11:38:37;;;;;;;0.82;0.82;;;10.90;99.90;;;;;;4973150;28;20201;-81
2021/05/02 11:41:10;;;;;;;0.70;0.70;;;11.10;99.90;;;;;;4970961;28;20233;-81
2021/05/02 11:43:43;;;;;;;0.70;0.70;;;11.10;99.90;;;;;;4971678;28;20205;-81
2021/05/02 11:46:19;;;;;;;0.73;0.73;;;10.90;99.90;;;;;;4970623;28;20209;-80
2021/05/02 11:48:49;;;;;;;0.75;0.75;;;10.60;99.90;;;;;;4971774;29;20205;-82
2021/05/02 11:51:20;;;;;;;0.82;0.82;;;10.50;99.90;;;;;;4973394;28;20202;-81
2021/05/02 11:53:48;;;;;;;0.90;0.90;;;10.50;99.90;;;;;;4972685;28;20217;-82
2021/05/02 11:56:24;;;;;;;0.80;0.80;;;10.60;99.90;;;;;;4968911;28;20722;-82
2021/05/02 11:58:53;;;;;;;0.70;0.70;;;10.70;99.90;;;;;;4969606;28;20268;-83
2021/05/02 12:01:25;;;;;;;0.70;0.70;;;10.70;99.90;;;;;;4968365;28;20217;-82
2021/05/02 12:03:53;;;;;;;0.70;0.70;;;10.80;99.90;;;;;;4966772;28;20205;-81
2021/05/02 12:06:26;;;;;;;0.80;0.80;;;10.80;99.90;;;;;;4965862;28;20221;-82
2021/05/02 12:08:53;;;;;;;0.60;0.60;;;10.90;99.90;;;;;;4965666;28;20217;-81
2021/05/02 12:11:22;;;;;;;0.75;0.75;;;11.10;99.90;;;;;;4966526;28;20563;-81
2021/05/02 12:13:51;;;;;;;0.70;0.70;;;11.10;99.90;;;;;;4967030;28;20264;-81
2021/05/02 12:16:19;;;;;;;0.73;0.73;;;11.30;99.90;;;;;;4967293;28;20221;-80
2021/05/02 12:19:01;;;;;;;0.70;0.70;;;11.30;99.90;;;;;;4966052;28;20213;-80
2021/05/02 12:21:31;;;;;;;0.70;0.70;;;11.60;99.90;;;;;;4964570;28;20188;-81
2021/05/02 12:24:08;;;;;;;0.70;0.70;;;11.90;99.90;;;;;;4968707;28;20189;-81
2021/05/02 12:26:41;;;;;;;0.70;0.70;;;11.90;99.90;;;;;;4966125;28;20225;-81
2021/05/02 12:29:10;;;;;;;0.70;0.70;;;11.70;99.90;;;;;;4962467;28;20698;-81
2021/05/02 12:31:38;;;;;;;0.60;0.60;;;11.30;99.90;;;;;;4964049;28;20201;-82
2021/05/02 12:34:06;;;;;;;0.73;0.73;;;11.00;99.90;;;;;;4968985;28;20204;-81
2021/05/02 12:36:34;;;;;;;0.70;0.70;;;11.00;99.90;;;;;;4982222;28;20217;-82
2021/05/02 12:39:07;;;;;;;0.80;0.80;;;10.80;99.90;;;;;;4984602;28;20197;-82
2021/05/02 12:41:36;;;;;;;0.70;0.70;;;10.60;99.90;;;;;;4972225;28;20216;-81
2021/05/02 12:44:15;;;;;;;0.70;0.70;;;10.30;99.90;;;;;;4976269;28;20224;-82
2021/05/02 12:46:44;;;;;;;0.75;0.75;;;10.10;99.90;;;;;;4986685;28;20228;-81
2021/05/02 12:49:14;;;;;;;0.85;0.85;;;10.00;99.90;;;;;;4983816;28;20197;-81
2021/05/02 12:51:43;;;;;;;0.80;0.80;;;9.90;99.90;;;;;;4984691;28;20626;-82
2021/05/02 12:54:13;;;;;;;0.80;0.80;;;9.90;99.90;;;;;;4983275;28;20200;-82
2021/05/02 12:56:42;;;;;;;0.90;0.90;;;9.60;99.90;;;;;;4985234;28;20224;-82
2021/05/02 12:59:36;;;;;;;0.95;0.95;;;9.70;99.90;;;;;;4980342;28;20201;-82
2021/05/02 13:02:09;;;;;;;0.70;0.70;;;9.70;99.90;;;;;;4972285;28;20197;-82
2021/05/02 13:04:47;;;;;;;0.80;0.80;;;9.80;99.90;;;;;;4959998;28;20252;-82
2021/05/02 13:07:16;;;;;;;0.80;0.80;;;10.10;99.90;;;;;;4960679;28;20234;-83
2021/05/02 13:09:44;;;;;;;0.90;0.90;;;9.80;99.90;;;;;;4983507;28;20204;-82
2021/05/02 13:12:13;;;;;;;0.80;0.80;;;9.80;99.90;;;;;;4984517;28;20236;-83
2021/05/02 13:14:40;;;;;;;0.70;0.70;;;9.80;99.90;;;;;;4986460;28;20236;-82
2021/05/02 13:17:13;;;;;;;0.80;0.80;;;9.80;99.90;;;;;;4984861;28;20235;-82
2021/05/02 13:19:44;;;;;;;0.90;0.90;;;9.80;99.90;;;;;;4984979;28;20264;-81
2021/05/02 13:22:20;;;;;;;0.80;0.80;;;9.70;99.90;;;;;;4982530;28;20681;-82
2021/05/02 13:24:58;;;;;;;0.80;0.80;;;9.60;99.90;;;;;;4981734;28;20208;-86
2021/05/02 13:27:42;;;;;;;0.80;0.80;;;9.60;99.90;;;;;;4982121;28;20275;-83
2021/05/02 13:30:12;;;;;;;0.80;0.80;;;9.50;99.90;;;;;;4976675;28;20205;-83
2021/05/02 13:33:00;;;;;;;0.80;0.80;;;9.70;99.90;;;;;;4992102;28;20204;-83
2021/05/02 13:35:29;;;;;;;0.80;0.80;;;9.70;99.90;;;;;;4988376;28;20205;-83
2021/05/02 13:37:57;;;;;;;0.88;0.88;;;9.60;99.90;;;;;;4968854;28;20225;-83
2021/05/02 13:40:25;;;;;;;0.88;0.88;;;9.50;99.90;;;;;;4962155;28;20212;-82
2021/05/02 13:42:53;;;;;;;0.90;0.90;;;9.50;99.90;;;;;;4974185;28;20201;-83
2021/05/02 13:45:21;;;;;;;0.80;0.80;;;9.50;99.90;;;;;;4981301;28;20599;-82
2021/05/02 13:47:48;;;;;;;0.98;0.98;;;9.40;99.90;;;;;;4985097;28;20240;-83
2021/05/02 13:50:17;;;;;;;0.80;0.80;;;9.40;99.90;;;;;;4986420;28;20211;-83
2021/05/02 13:52:45;;;;;;;0.77;0.77;;;9.30;99.90;;;;;;4984162;28;20219;-83
2021/05/02 13:55:13;;;;;;;0.80;0.80;;;9.40;99.90;;;;;;4985979;28;20259;-82
2021/05/02 13:57:40;;;;;;;0.80;0.80;;;9.60;99.90;;;;;;4986987;28;20244;-81
2021/05/02 14:00:12;;;;;;;0.80;0.80;;;9.30;99.90;;;;;;4983652;28;20216;-82
2021/05/02 14:02:39;;;;;;;0.90;0.90;;;9.20;99.90;;;;;;4985745;28;20181;-81
2021/05/02 14:05:09;;;;;;;0.80;0.80;;;9.30;99.90;;;;;;4986306;28;20251;-82
2021/05/02 14:07:36;;;;;;;0.80;0.80;;;9.20;99.90;;;;;;4985577;28;20216;-82
2021/05/02 14:10:04;;;;;;;1.00;1.00;;;9.10;99.90;;;;;;4985671;28;20716;-82
2021/05/02 14:12:30;;;;;;;0.90;0.90;;;9.10;99.90;;;;;;4986342;28;20211;-82
2021/05/02 14:14:57;;;;;;;0.90;0.90;;;9.20;99.90;;;;;;4981870;28;20200;-81
2021/05/02 14:17:25;;;;;;;0.80;0.80;;;9.10;99.90;;;;;;4981316;28;20235;-83
2021/05/02 14:19:53;;;;;;;0.90;0.90;;;9.00;99.90;;;;;;4981784;28;20264;-81
2021/05/02 14:22:21;;;;;;;0.90;0.90;;;9.10;99.90;;;;;;4985685;28;20257;-83
2021/05/02 14:24:48;;;;;;;0.80;0.80;;;9.10;99.90;;;;;;4975903;28;20624;-78
2021/05/02 14:27:15;;;;;;;0.73;0.73;;;9.20;99.90;;;;;;4978726;28;20287;-78
2021/05/02 14:29:43;;;;;;;0.80;0.80;;;9.30;99.90;;;;;;4976625;28;20227;-78
2021/05/02 14:32:13;;;;;;;1.10;1.10;;;9.30;99.90;;;;;;4979409;28;20255;-80
2021/05/02 14:34:42;;;;;;;0.90;0.90;;;9.20;99.90;;;;;;4979968;28;20593;-79
2021/05/02 14:37:12;;;;;;;0.80;0.80;;;9.10;99.90;;;;;;4979246;28;20217;-82
2021/05/02 14:39:39;;;;;;;0.82;0.82;;;9.20;99.90;;;;;;4980301;28;20200;-81
2021/05/02 14:42:08;;;;;;;0.90;0.90;;;9.20;99.90;;;;;;4981330;28;20208;-79
2021/05/02 14:44:36;;;;;;;0.80;0.80;;;9.20;99.90;;;;;;4973691;28;20205;-80
2021/05/02 14:47:03;;;;;;;0.88;0.88;;;9.20;99.90;;;;;;4979660;28;20220;-81
2021/05/02 14:49:31;;;;;;;0.95;0.95;;;9.20;99.90;;;;;;4979902;28;20239;-81
2021/05/02 14:52:07;;;;;;;0.70;0.70;;;9.20;99.90;;;;;;4979214;28;20669;-80
2021/05/02 14:54:37;;;;;;;0.80;0.80;;;9.30;99.90;;;;;;4980025;28;20227;-82
2021/05/02 14:57:05;;;;;;;0.95;0.95;;;9.30;99.90;;;;;;4979285;28;20890;-80
2021/05/02 14:59:33;;;;;;;0.85;0.85;;;9.20;99.90;;;;;;4978651;28;20208;-79
2021/05/02 15:02:00;;;;;;;1.00;1.00;;;9.20;99.90;;;;;;4978849;28;20255;-81
2021/05/02 15:04:28;;;;;;;0.95;0.95;;;9.40;99.90;;;;;;4970988;28;20205;-78
2021/05/02 15:06:55;;;;;;;0.90;0.90;;;9.50;99.90;;;;;;4964826;28;20228;-77
2021/05/02 15:09:22;;;;;;;0.80;0.80;;;9.30;99.90;;;;;;4959722;28;20205;-78
2021/05/02 15:11:50;;;;;;;0.80;0.80;;;9.40;99.90;;;;;;4959560;28;20253;-79
2021/05/02 15:14:18;;;;;;;1.02;1.02;;;9.30;99.90;;;;;;4958649;28;20263;-77
2021/05/02 15:16:45;;;;;;;0.90;0.90;;;9.30;99.90;;;;;;4958325;28;20358;-78
2021/05/02 15:19:15;;;;;;;0.90;0.90;;;9.20;99.90;;;;;;4960003;28;20561;-77
2021/05/02 15:21:42;;;;;;;0.90;0.90;;;9.20;99.90;;;;;;4969435;28;20205;-78
2021/05/02 15:24:10;;;;;;;0.80;0.80;;;9.30;99.90;;;;;;4978442;28;20209;-81
2021/05/02 15:26:38;;;;;;;0.90;0.90;;;9.20;99.90;;;;;;4971375;28;20237;-78
2021/05/02 15:29:10;;;;;;;0.90;0.90;;;9.30;99.90;;;;;;4961755;28;20190;-80
2021/05/02 15:31:37;;;;;;;1.10;1.10;;;9.30;99.90;;;;;;4967816;28;20247;-78
2021/05/02 15:34:04;;;;;;;0.80;0.80;;;9.40;99.90;;;;;;4974458;28;20204;-79
2021/05/02 15:36:31;;;;;;;0.95;0.95;;;9.50;99.90;;;;;;4971920;28;20233;-77
2021/05/02 15:38:59;;;;;;;0.90;0.90;;;9.40;99.90;;;;;;4972629;28;20193;-77
2021/05/02 15:41:26;;;;;;;0.88;0.88;;;9.40;99.90;;;;;;4965921;28;20204;-78
2021/05/02 15:43:55;;;;;;;0.93;0.93;;;9.40;99.90;;;;;;4958486;28;20209;-78
2021/05/02 15:46:22;;;;;;;1.05;1.05;;;9.40;99.90;;;;;;4976673;28;20248;-78
2021/05/02 15:48:49;;;;;;;0.80;0.80;;;9.30;99.90;;;;;;4977205;28;20721;-76
2021/05/02 15:51:16;;;;;;;1.00;1.00;;;9.20;99.90;;;;;;4966756;28;20209;-76
2021/05/02 15:53:45;;;;;;;0.95;0.95;;;9.20;99.90;;;;;;4962361;28;20288;-76
2021/05/02 15:56:12;;;;;;;0.80;0.80;;;9.30;99.90;;;;;;4964556;28;20249;-77
2021/05/02 15:58:39;;;;;;;0.82;0.82;;;9.20;99.90;;;;;;4959314;28;20641;-79
2021/05/02 16:01:08;;;;;;;0.80;0.80;;;9.10;99.90;;;;;;4966857;28;20204;-78
2021/05/02 16:03:35;;;;;;;0.80;0.80;;;9.00;99.90;;;;;;4955638;28;20213;-79
2021/05/02 16:06:03;;;;;;;0.80;0.80;;;9.20;99.90;;;;;;4960468;28;20193;-79
2021/05/02 16:08:30;;;;;;;0.90;0.90;;;8.90;99.90;;;;;;4978980;28;20200;-82
2021/05/02 16:10:58;;;;;;;0.80;0.80;;;8.90;99.90;;;;;;4984143;28;20209;-79
2021/05/02 16:13:26;;;;;;;0.98;0.98;;;9.00;99.90;;;;;;4965350;28;20240;-73
2021/05/02 16:15:54;;;;;;;1.00;1.00;;;8.70;99.90;;;;;;4975373;28;20197;-80
2021/05/02 16:18:23;;;;;;;0.80;0.80;;;8.70;99.90;;;;;;4972212;28;20582;-79
2021/05/02 16:20:50;;;;;;;0.95;0.95;;;8.70;99.90;;;;;;4969730;28;20225;-80
2021/05/02 16:23:18;;;;;;;1.00;1.00;;;8.60;99.90;;;;;;4973946;28;20667;-79
2021/05/02 16:25:45;;;;;;;0.93;0.93;;;8.60;99.90;;;;;;4972521;28;20227;-81
2021/05/02 16:28:12;;;;;;;0.90;0.90;;;8.50;99.90;;;;;;5008445;22;20275;-79
2021/05/02 16:30:40;;;;;;;0.90;0.90;;;8.00;99.90;;;;;;4991467;28;20201;-80
2021/05/02 16:33:07;;;;;;;0.90;0.90;;;8.40;99.90;;;;;;4991916;28;20208;-81
2021/05/02 16:35:35;;;;;;;0.90;0.90;;;8.30;99.90;;;;;;4994141;28;20232;-80
2021/05/02 16:38:02;;;;;;;0.90;0.90;;;8.30;99.90;;;;;;4982568;28;20225;-79
2021/05/02 16:40:29;;;;;;;0.97;0.97;;;8.30;99.90;;;;;;4972533;28;20217;-77
2021/05/02 16:42:56;;;;;;;0.90;0.90;;;8.20;99.90;;;;;;4973464;28;20229;-81
2021/05/02 16:45:23;;;;;;;0.90;0.90;;;8.20;99.90;;;;;;4974210;28;20193;-82
2021/05/02 16:47:50;;;;;;;1.00;1.00;;;8.30;99.90;;;;;;4976269;28;20244;-78
2021/05/02 16:50:17;;;;;;;1.10;1.10;;;6.40;99.90;;;;;;4970856;28;20276;-78
2021/05/02 16:52:45;;;;;;;1.00;1.00;;;8.10;99.90;;;;;;4958740;28;20213;-75
2021/05/02 16:55:12;;;;;;;1.00;1.00;;;8.10;99.90;;;;;;4959910;28;20209;-76
2021/05/02 16:57:39;;;;;;;0.90;0.90;;;8.30;99.90;;;;;;4960145;28;20801;-75
2021/05/02 17:00:08;;;;;;;0.90;0.90;;;8.20;99.90;;;;;;4955346;28;20619;-76
2021/05/02 17:02:35;;;;;;;0.90;0.90;;;8.30;99.90;;;;;;4954943;28;20209;-76
2021/05/02 17:05:02;;;;;;;0.90;0.90;;;8.40;99.90;;;;;;4954816;28;20201;-76
2021/05/02 17:07:29;;;;;;;0.90;0.90;;;8.30;99.90;;;;;;4955013;28;20229;-76
2021/05/02 17:09:57;;;;;;;1.10;1.10;;;8.30;99.90;;;;;;4955935;28;20632;-76
2021/05/02 17:12:24;;;;;;;0.90;0.90;;;8.30;99.90;;;;;;4955915;28;20281;-74
2021/05/02 17:14:51;;;;;;;0.80;0.80;;;8.30;99.90;;;;;;4955633;28;20205;-76
2021/05/02 17:17:18;;;;;;;0.90;0.90;;;8.40;99.90;;;;;;4959900;28;20636;-75
2021/05/02 17:19:45;;;;;;;0.95;0.95;;;8.30;99.90;;;;;;4967219;28;20205;-77